Slide Mountain Weather observations

Data are for 10 minute period ending at time listed.
 Day   Time   Solar   Ave.   Ave.  Ave.  Vector  Max.    Baro.  
  of    of     Rad.   Air    Rel.  Wind   Wind   Wind   Press.  
Year   Day            Temp.  Hum.  Speed  Dir.   Gust           
2014   (PST)  Kw/m2    F      %     mph   deg.    mph     mb.   
-----------------------------------------------------------------
 208    0:00   0.00   60.6    10    9.5   269     12.2    722.0 
 208    0:10   0.00   59.8    11   10.5   268     13.3    721.9 
 208    0:20   0.00   59.6    11   11.6   268     13.8    721.9 
 208    0:30   0.00   59.4    11   12.6   265     15.1    721.9 
 208    0:40   0.00   59.2    11   13.8   258     17.2    721.9 
 208    0:50   0.00   59.0    11   13.0   254     17.6    721.9 
 208    1:00   0.00   58.9    12   12.2   256     16.1    722.0 
 208    1:10   0.00   58.9    12   13.2   258     17.5    722.0 
 208    1:20   0.00   58.9    12   14.4   258     17.9    722.0 
 208    1:30   0.00   58.7    13   14.6   260     17.9    721.9 
 208    1:40   0.00   58.7    14   13.5   262     17.5    721.9 
 208    1:50   0.00   58.7    15   13.5   266     15.9    721.8 
 208    2:00   0.00   58.5    16   15.0   265     19.4    721.8 
 208    2:10   0.00   58.4    17   15.1   262     19.6    721.7 
 208    2:20   0.00   58.2    18   15.5   263     19.4    721.8 
 208    2:30   0.00   58.2    19   15.8   262     19.3    721.8 
 208    2:40   0.00   57.9    21   15.4   264     19.0    721.7 
 208    2:50   0.00   57.7    23   14.1   263     18.5    721.7 
 208    3:00   0.00   57.6    24   14.2   258     18.0    721.7 
 208    3:10   0.00   57.6    25   12.7   261     17.0    721.7 
 208    3:20   0.00   57.1    27   13.7   258     16.4    721.7 
 208    3:30   0.00   57.5    24   13.9   256     17.6    721.7 
 208    3:40   0.00   57.8    23   13.7   263     17.4    721.7 
 208    3:50   0.00   57.7    22   12.5   261     15.5    721.7 
 208    4:00   0.00   57.2    27   13.0   258     17.2    721.7 
 208    4:10   0.00   57.0    29   15.3   258     19.7    721.7 
 208    4:20   0.00   56.9    28   13.3   263     16.4    721.7 
 208    4:30   0.00   56.7    28   13.3   264     16.9    721.7 
 208    4:40   0.00   56.7    25   14.2   261     17.9    721.6 
 208    4:50   0.00   56.2    30   15.4   263     19.8    721.6 
 208    5:00   0.00   55.7    31   16.4   267     20.4    721.7 
 208    5:10   0.01   55.7    31   16.0   263     19.7    721.7 
 208    5:20   0.01   56.0    29   13.6   263     16.6    721.8 
 208    5:30   0.02   56.1    28   13.2   262     16.9    721.8 
 208    5:40   0.03   56.1    28   13.4   260     18.3    721.9 
 208    5:50   0.03   56.2    27   13.7   256     17.2    721.9 
 208    6:00   0.07   56.5    26   13.5   262     18.1    721.9 
 208    6:10   0.12   57.1    24   14.5   265     18.3    722.0 
 208    6:20   0.14   56.9    25   14.8   264     17.5    722.0 
 208    6:30   0.14   57.2    26   13.7   265     16.6    722.0 
 208    6:40   0.23   57.5    26   14.1   264     17.9    722.1 
 208    6:50   0.21   57.5    27   12.8   266     16.4    722.2 
 208    7:00   0.16   57.4    26   10.1   270     13.3    722.3 
 208    7:10   0.19   57.5    26   10.3   266     14.8    722.3 
 208    7:20   0.15   57.6    26   11.2   268     15.0    722.4 
 208    7:30   0.33   58.0    27   10.2   266     13.1    722.5 
 208    7:40   0.33   58.9    24   10.8   265     14.3    722.5 
 208    7:50   0.51   60.2    25   10.2   265     13.2    722.6 
 208    8:00   0.41   60.3    27   10.0   264     15.2    722.6 
 208    8:10   0.32   59.4    26    9.0   269     12.3    722.6 
 208    8:20   0.55   61.0    25    5.6   269      8.4    722.7 
 208    8:30   0.55   62.4    25    3.6   265      6.5    722.7 
 208    8:40   0.29   61.5    26    5.0   275      7.3    722.8 
 208    8:50   0.56   61.6    29    2.7   264      6.8    722.8 
 208    9:00   0.45   62.0    31    5.4   262      8.8    722.8 
 208    9:10   0.36   60.7    35    4.6   267      9.1    722.8 
 208    9:20   0.42   59.9    37    7.1   266     11.1    722.8 
 208    9:30   0.71   60.6    38    8.7   265     13.5    722.7 
 208    9:40   0.72   62.3    36    6.9   266     11.3    722.7 
 208    9:50   0.71   63.5    34    4.9   268      8.0    722.7 
 208   10:00   0.73   63.9    31    2.9   266      7.1    722.8 
 208   10:10   0.74   65.1    30    2.6   258      6.0    722.7 
 208   10:20   0.77   66.8    28    3.1   234      6.3    722.7 
 208   10:30   0.77   67.9    26    2.1   227      5.7    722.8 
 208   10:40   0.77   67.7    25    3.6   234      7.3    722.8 
 208   10:50   0.80   69.3    23    2.1   148      8.9    722.9 
 208   11:00   0.79   70.8    22    1.9   221      5.8    722.8 
 208   11:10   0.81   69.1    23    2.2   210      7.5    722.8 
 208   11:20   0.82   71.5    22    0.7   183      4.0    722.8 
 208   11:30   0.71   71.5    22    1.7   191      5.0    722.8 
 208   11:40   0.36   69.2    24    1.2   166      3.5    722.9 
 208   11:50   0.40   67.7    25    0.6   189      3.8    722.9 
 208   12:00   0.48   68.0    25    2.4   237      9.2    722.8 
 208   12:10   0.86   67.5    25    3.8   246      9.9    722.8 
 208   12:20   0.93   67.7    23    4.5   235     10.2    722.8 
 208   12:30   0.95   69.1    23    4.8   231     10.2    722.8 
 208   12:40   0.82   70.8    19    3.8   223      9.3    722.8 
 208   12:50   0.60   69.3    22    6.0   242     15.7    722.7 
 208   13:00   0.68   67.5    22    7.6   251     12.8    722.7 
 208   13:10   0.87   68.9    20    5.2   239     13.2    722.7 
 208   13:20   0.85   69.8    20    5.8   243     14.7    722.7 
 208   13:30   0.83   70.5    19    6.8   234     15.3    722.7 
 208   13:40   0.83   70.5    18    6.3   242     12.2    722.6 
 208   13:50   0.81   70.5    18    7.2   234     12.4    722.6 
 208   14:00   0.75   71.0    18    5.1   224     11.3    722.5 
 208   14:10   0.73   70.5    18    8.9   237     15.8    722.4 
 208   14:20   0.67   71.3    17    8.6   232     17.5    722.4 
 208   14:30   0.48   70.3    19   10.3   251     16.6    722.3 
 208   14:40   0.28   67.6    22   12.7   258     18.9    722.3 
 208   14:50   0.26   66.6    24   12.6   254     17.6    722.3 
 208   15:00   0.27   65.8    26   13.5   252     19.2    722.2 
 208   15:10   0.26   65.1    27   14.0   249     21.0    722.2 
 208   15:20   0.23   64.6    28   12.8   254     17.6    722.2 
 208   15:30   0.19   64.1    28   14.9   255     21.7    722.2 
 208   15:40   0.14   63.0    29   16.5   262     21.7    722.2 
 208   15:50   0.18   62.7    30   16.2   266     19.4    722.2 
 208   16:00   0.17   63.0    30   13.8   263     17.8    722.1 
 208   16:10   0.21   63.2    31   11.4   258     15.7    722.1 
 208   16:20   0.20   63.6    31   12.7   256     19.6    722.1 
 208   16:30   0.13   63.0    32   13.8   259     18.7    722.2 
 208   16:40   0.11   62.4    33   16.6   265     21.8    722.2 
 208   16:50   0.12   62.5    33   13.8   264     20.3    722.2 
 208   17:00   0.12   62.4    33   16.0   264     20.9    722.2 
 208   17:10   0.15   62.7    32   16.0   270     20.9    722.1 
 208   17:20   0.11   62.9    30   16.6   271     20.5    722.1 
 208   17:30   0.23   63.8    28   14.8   269     21.0    722.1 
 208   17:40   0.28   65.0    28   12.6   263     18.2    722.1 
 208   17:50   0.14   64.6    26   14.5   267     20.1    722.2 
 208   18:00   0.07   63.3    26   10.6   284     15.4    722.2 
 208   18:10   0.06   63.0    26    9.8   282     13.3    722.3 
 208   18:20   0.12   63.4    26    9.3   270     12.8    722.3 
 208   18:30   0.06   63.4    26    9.2   274     13.3    722.3 
 208   18:40   0.05   62.5    26   13.2   272     17.2    722.2 
 208   18:50   0.04   62.3    26   12.3   269     15.6    722.3 
 208   19:00   0.03   62.2    27    6.7   263     14.7    722.4 
 208   19:10   0.01   62.0    27    4.2   322      9.8    722.5 
 208   19:20   0.00   61.6    27    1.6   337      4.6    722.5 
 208   19:30   0.00   61.4    28    0.5   345      2.2    722.5 
 208   19:40   0.00   60.7    28    6.1   317     12.1    722.5 
 208   19:50   0.00   60.5    28    2.3   300      5.1    722.5 
 208   20:00   0.00   60.7    28    1.6   338      6.3    722.6 
 208   20:10   0.00   60.2    29    3.9   323      7.3    722.7 
 208   20:20   0.00   59.8    30    4.8   319      7.2    722.8 
 208   20:30   0.00   59.9    30    4.8   317      7.1    722.8 
 208   20:40   0.00   59.4    31    5.5   323      8.1    722.9 
 208   20:50   0.00   59.4    31    9.0   322     14.1    722.9 
 208   21:00   0.00   59.1    32    7.2   340     11.6    723.0 
 208   21:10   0.00   59.2    32    6.1   355     10.3    723.0 
 208   21:20   0.00   59.1    32    3.2   356      5.3    723.0 
 208   21:30   0.00   59.8    31    5.4    37     13.3    723.0 
 208   21:40   0.00   59.9    32    9.5    52     13.3    723.0 
 208   21:50   0.00   60.0    32    7.3    70     10.8    722.9 
 208   22:00   0.00   60.0    31    9.2    83     12.4    722.9 
 208   22:10   0.00   59.9    31    8.4    91     12.6    723.0 
 208   22:20   0.00   60.0    31    6.3   103      8.2    723.0 
 208   22:30   0.00   60.2    31    6.1   120      8.5    723.0 
 208   22:40   0.00   60.6    30    2.6   136      4.1    723.0 
 208   22:50   0.00   60.7    30    4.0   131      7.3    723.0 
 208   23:00   0.00   60.2    31    5.8   120     10.0    723.0 

Return to Slide Mountain graphs page.


Western Regional Climate Center,wrcc@dri.edu